Palm Springs, California
Current Conditions -  °F | °C
As of 7:53 PM on Wednesday 26 Nov 2014 (Local Time) from KPSP Reporting Station
Clear Clear  
Wind Chill: 62°   Ceiling: Unl
Heat Index: 62°   Visibility: 10mi
Dew Point: 22°   Wind: 7mph
Humidity: 21%   Direction: 310°NW
Pressure: 30.21"   Gusts: NA
Location:  33.82°N, 116.51°W
Report Text: KPSP 270353Z 31006KT 10SM CLR 17/M06 A3021 RMK AO2 SLP230 T01671056
Loading
Personal Weather Stations






























Interactive Weather Map New forecast layout! Learn more

10-Day Weather Forecast

Advertisements
Track Severe Weather on mobile